sensor_id;sensor_type;location;lat;lon;timestamp;pressure;altitude;pressure_sealevel;temperature;humidity
9129;BME280;4599;50.906;6.786;2023-03-12T00:03:06;15547.88;;;-142.83;63.66
9129;BME280;4599;50.906;6.786;2023-03-12T00:07:08;15601.03;;;-142.83;58.31
9129;BME280;4599;50.906;6.786;2023-03-12T00:11:11;15617.41;;;-142.83;58.98
9129;BME280;4599;50.906;6.786;2023-03-12T00:15:14;15596.94;;;-142.83;60.39
9129;BME280;4599;50.906;6.786;2023-03-12T00:19:15;15564.25;;;-142.83;59.41
9129;BME280;4599;50.906;6.786;2023-03-12T00:23:17;15582.63;;;-142.83;59.62
9129;BME280;4599;50.906;6.786;2023-03-12T00:27:18;15576.50;;;-142.83;58.74
9129;BME280;4599;50.906;6.786;2023-03-12T00:31:24;15584.69;;;-142.83;58.60
9129;BME280;4599;50.906;6.786;2023-03-12T00:35:26;15601.03;;;-142.83;58.68
9129;BME280;4599;50.906;6.786;2023-03-12T00:39:28;15586.72;;;-142.83;57.63
9129;BME280;4599;50.906;6.786;2023-03-12T00:43:29;15582.63;;;-142.83;59.58
9129;BME280;4599;50.906;6.786;2023-03-12T00:47:33;15547.88;;;-142.83;63.71
9129;BME280;4599;50.906;6.786;2023-03-12T00:51:34;15539.69;;;-142.83;63.76
9129;BME280;4599;50.906;6.786;2023-03-12T00:55:36;15576.50;;;-142.83;61.24
9129;BME280;4599;50.906;6.786;2023-03-12T00:59:37;15564.25;;;-142.83;60.03
9129;BME280;4599;50.906;6.786;2023-03-12T01:03:40;15558.09;;;-142.83;62.42
9129;BME280;4599;50.906;6.786;2023-03-12T01:07:43;15529.47;;;-142.83;64.06
9129;BME280;4599;50.906;6.786;2023-03-12T01:11:44;15490.63;;;-142.83;65.16
9129;BME280;4599;50.906;6.786;2023-03-12T01:15:46;15509.03;;;-142.83;64.31
9129;BME280;4599;50.906;6.786;2023-03-12T01:19:49;15531.53;;;-142.83;62.33
9129;BME280;4599;50.906;6.786;2023-03-12T01:23:51;15468.16;;;-142.83;66.70
9129;BME280;4599;50.906;6.786;2023-03-12T01:27:53;15504.94;;;-142.83;66.01
9129;BME280;4599;50.906;6.786;2023-03-12T01:31:54;15531.53;;;-142.83;65.68
9129;BME280;4599;50.906;6.786;2023-03-12T01:35:58;15551.97;;;-142.83;62.11
9129;BME280;4599;50.906;6.786;2023-03-12T01:40:00;15549.94;;;-142.83;60.43
9129;BME280;4599;50.906;6.786;2023-03-12T01:44:03;15572.41;;;-142.83;62.82
9129;BME280;4599;50.906;6.786;2023-03-12T01:48:04;15529.47;;;-142.83;59.63
9129;BME280;4599;50.906;6.786;2023-03-12T01:52:10;15584.69;;;-142.83;59.71
9129;BME280;4599;50.906;6.786;2023-03-12T01:56:15;15568.31;;;-142.83;58.40
9129;BME280;4599;50.906;6.786;2023-03-12T02:00:21;15588.78;;;-142.83;58.34
9129;BME280;4599;50.906;6.786;2023-03-12T02:04:24;15588.78;;;-142.83;57.89
9129;BME280;4599;50.906;6.786;2023-03-12T02:08:28;15605.13;;;-142.83;57.87
9129;BME280;4599;50.906;6.786;2023-03-12T02:12:29;15576.50;;;-142.83;57.78
9129;BME280;4599;50.906;6.786;2023-03-12T02:16:32;15584.69;;;-142.83;59.52
9129;BME280;4599;50.906;6.786;2023-03-12T02:20:36;15576.50;;;-142.83;59.61
9129;BME280;4599;50.906;6.786;2023-03-12T02:24:45;15564.25;;;-142.83;62.42
9129;BME280;4599;50.906;6.786;2023-03-12T02:28:50;15547.88;;;-142.83;63.37
9129;BME280;4599;50.906;6.786;2023-03-12T02:32:53;15547.88;;;-142.83;63.18
9129;BME280;4599;50.906;6.786;2023-03-12T02:36:55;15486.53;;;-142.83;64.70
9129;BME280;4599;50.906;6.786;2023-03-12T02:40:57;15507.00;;;-142.83;64.65
9129;BME280;4599;50.906;6.786;2023-03-12T02:45:04;15525.41;;;-142.83;63.91
9129;BME280;4599;50.906;6.786;2023-03-12T02:49:06;15490.63;;;-142.83;64.50
9129;BME280;4599;50.906;6.786;2023-03-12T02:53:08;15509.03;;;-142.83;64.02
9129;BME280;4599;50.906;6.786;2023-03-12T02:57:10;15513.13;;;-142.83;64.47
9129;BME280;4599;50.906;6.786;2023-03-12T03:01:13;15523.34;;;-142.83;62.44
9129;BME280;4599;50.906;6.786;2023-03-12T03:05:15;15502.91;;;-142.83;63.01
9129;BME280;4599;50.906;6.786;2023-03-12T03:09:17;15533.56;;;-142.83;63.37
9129;BME280;4599;50.906;6.786;2023-03-12T03:13:19;15574.47;;;-142.83;63.62
9129;BME280;4599;50.906;6.786;2023-03-12T03:17:22;15515.16;;;-142.83;63.58
9129;BME280;4599;50.906;6.786;2023-03-12T03:21:24;15537.66;;;-142.83;62.98
9129;BME280;4599;50.906;6.786;2023-03-12T03:25:25;15541.75;;;-142.83;62.92
9129;BME280;4599;50.906;6.786;2023-03-12T03:29:27;15511.09;;;-142.83;62.93
9129;BME280;4599;50.906;6.786;2023-03-12T03:33:33;15507.00;;;-142.83;63.39
9129;BME280;4599;50.906;6.786;2023-03-12T03:37:35;15523.34;;;-142.83;62.46
9129;BME280;4599;50.906;6.786;2023-03-12T03:41:37;15543.78;;;-142.83;60.97
9129;BME280;4599;50.906;6.786;2023-03-12T03:45:40;15572.41;;;-142.83;60.97
9129;BME280;4599;50.906;6.786;2023-03-12T03:49:43;15556.06;;;-142.83;60.84
9129;BME280;4599;50.906;6.786;2023-03-12T03:53:46;15545.84;;;-142.83;60.24
9129;BME280;4599;50.906;6.786;2023-03-12T03:57:48;15507.00;;;-142.83;63.17
9129;BME280;4599;50.906;6.786;2023-03-12T04:01:49;15543.78;;;-142.83;60.29
9129;BME280;4599;50.906;6.786;2023-03-12T04:05:54;15527.44;;;-142.83;60.55
9129;BME280;4599;50.906;6.786;2023-03-12T04:09:57;15558.09;;;-142.83;60.94
9129;BME280;4599;50.906;6.786;2023-03-12T04:13:59;15545.84;;;-142.83;60.12
9129;BME280;4599;50.906;6.786;2023-03-12T04:18:00;15535.63;;;-142.83;61.50
9129;BME280;4599;50.906;6.786;2023-03-12T04:22:07;15554.00;;;-142.83;61.33
9129;BME280;4599;50.906;6.786;2023-03-12T04:26:08;15531.53;;;-142.83;61.47
9129;BME280;4599;50.906;6.786;2023-03-12T04:30:11;15515.16;;;-142.83;64.08
9129;BME280;4599;50.906;6.786;2023-03-12T04:34:13;15478.38;;;-142.83;66.13
9129;BME280;4599;50.906;6.786;2023-03-12T04:38:16;15462.00;;;-142.83;67.71
9129;BME280;4599;50.906;6.786;2023-03-12T04:42:18;15421.13;;;-142.83;69.45
9129;BME280;4599;50.906;6.786;2023-03-12T04:46:19;15400.69;;;-142.83;70.79
9129;BME280;4599;50.906;6.786;2023-03-12T04:50:21;15408.84;;;-142.83;73.63
9129;BME280;4599;50.906;6.786;2023-03-12T04:54:24;15392.50;;;-142.83;75.13
9129;BME280;4599;50.906;6.786;2023-03-12T04:58:26;15388.41;;;-142.83;76.34
9129;BME280;4599;50.906;6.786;2023-03-12T05:02:27;15363.88;;;-142.83;76.67
9129;BME280;4599;50.906;6.786;2023-03-12T05:06:29;15376.16;;;-142.83;77.14
9129;BME280;4599;50.906;6.786;2023-03-12T05:10:32;15353.66;;;-142.83;78.05
9129;BME280;4599;50.906;6.786;2023-03-12T05:14:33;15339.34;;;-142.83;78.31
9129;BME280;4599;50.906;6.786;2023-03-12T05:18:35;15320.94;;;-142.83;79.11
9129;BME280;4599;50.906;6.786;2023-03-12T05:22:37;15343.44;;;-142.83;79.88
9129;BME280;4599;50.906;6.786;2023-03-12T05:26:41;15312.78;;;-142.83;82.40
9129;BME280;4599;50.906;6.786;2023-03-12T05:30:43;15286.19;;;-142.83;82.48
9129;BME280;4599;50.906;6.786;2023-03-12T05:34:46;15286.19;;;-142.83;83.83
9129;BME280;4599;50.906;6.786;2023-03-12T05:38:47;15261.66;;;-142.83;85.11
9129;BME280;4599;50.906;6.786;2023-03-12T05:42:51;15273.94;;;-142.83;84.43
9129;BME280;4599;50.906;6.786;2023-03-12T05:46:53;15253.50;;;-142.83;84.97
9129;BME280;4599;50.906;6.786;2023-03-12T05:50:59;15280.06;;;-142.83;84.27
9129;BME280;4599;50.906;6.786;2023-03-12T05:55:01;15267.81;;;-142.83;84.72
9129;BME280;4599;50.906;6.786;2023-03-12T05:59:04;15251.44;;;-142.83;85.06
9129;BME280;4599;50.906;6.786;2023-03-12T06:03:07;15243.28;;;-142.83;84.94
9129;BME280;4599;50.906;6.786;2023-03-12T06:07:09;15253.50;;;-142.83;84.74
9129;BME280;4599;50.906;6.786;2023-03-12T06:11:11;15261.66;;;-142.83;84.91
9129;BME280;4599;50.906;6.786;2023-03-12T06:15:14;15239.19;;;-142.83;84.40
9129;BME280;4599;50.906;6.786;2023-03-12T06:19:16;15243.28;;;-142.83;84.27
9129;BME280;4599;50.906;6.786;2023-03-12T06:23:17;15271.88;;;-142.83;83.29
9129;BME280;4599;50.906;6.786;2023-03-12T06:27:22;15251.44;;;-142.83;82.71
9129;BME280;4599;50.906;6.786;2023-03-12T06:31:25;15251.44;;;-142.83;83.02
9129;BME280;4599;50.906;6.786;2023-03-12T06:35:27;15253.50;;;-142.83;82.59
9129;BME280;4599;50.906;6.786;2023-03-12T06:39:29;15241.22;;;-142.83;82.30
9129;BME280;4599;50.906;6.786;2023-03-12T06:43:31;15243.28;;;-142.83;82.07
9129;BME280;4599;50.906;6.786;2023-03-12T06:47:35;15237.13;;;-142.83;82.17
9129;BME280;4599;50.906;6.786;2023-03-12T06:51:38;15294.38;;;-142.83;82.01
9129;BME280;4599;50.906;6.786;2023-03-12T06:55:39;15222.81;;;-142.83;81.72
9129;BME280;4599;50.906;6.786;2023-03-12T06:59:41;15247.34;;;-142.83;82.19
9129;BME280;4599;50.906;6.786;2023-03-12T07:03:44;15253.50;;;-142.83;81.00
9129;BME280;4599;50.906;6.786;2023-03-12T07:07:46;15251.44;;;-142.83;80.73
9129;BME280;4599;50.906;6.786;2023-03-12T07:11:50;15255.53;;;-142.83;80.46
9129;BME280;4599;50.906;6.786;2023-03-12T07:15:52;15251.44;;;-142.83;79.90
9129;BME280;4599;50.906;6.786;2023-03-12T07:19:56;15253.50;;;-142.83;79.75
9129;BME280;4599;50.906;6.786;2023-03-12T07:23:57;15233.03;;;-142.83;79.86
9129;BME280;4599;50.906;6.786;2023-03-12T07:28:00;15257.56;;;-142.83;80.00
9129;BME280;4599;50.906;6.786;2023-03-12T07:32:02;15216.69;;;-142.83;80.14
9129;BME280;4599;50.906;6.786;2023-03-12T07:36:07;15241.22;;;-142.83;80.16
9129;BME280;4599;50.906;6.786;2023-03-12T07:40:10;15253.50;;;-142.83;80.60
9129;BME280;4599;50.906;6.786;2023-03-12T07:44:12;15241.22;;;-142.83;80.23
9129;BME280;4599;50.906;6.786;2023-03-12T07:48:16;15253.50;;;-142.83;79.93
9129;BME280;4599;50.906;6.786;2023-03-12T07:52:20;15255.53;;;-142.83;79.98
9129;BME280;4599;50.906;6.786;2023-03-12T07:56:23;15241.22;;;-142.83;80.27
9129;BME280;4599;50.906;6.786;2023-03-12T08:00:24;15237.13;;;-142.83;80.91
9129;BME280;4599;50.906;6.786;2023-03-12T08:04:26;15228.97;;;-142.83;80.09
9129;BME280;4599;50.906;6.786;2023-03-12T08:08:30;15263.72;;;-142.83;80.30
9129;BME280;4599;50.906;6.786;2023-03-12T08:12:32;15212.59;;;-142.83;80.95
9129;BME280;4599;50.906;6.786;2023-03-12T08:16:34;15202.38;;;-142.83;82.59
9129;BME280;4599;50.906;6.786;2023-03-12T08:20:36;15196.25;;;-142.83;82.50
9129;BME280;4599;50.906;6.786;2023-03-12T08:24:39;15196.25;;;-142.83;84.17
9129;BME280;4599;50.906;6.786;2023-03-12T08:28:41;15179.91;;;-142.83;85.27
9129;BME280;4599;50.906;6.786;2023-03-12T08:32:43;15171.72;;;-142.83;86.44
9129;BME280;4599;50.906;6.786;2023-03-12T08:36:44;15143.09;;;-142.83;87.56
9129;BME280;4599;50.906;6.786;2023-03-12T08:40:56;15124.69;;;-142.83;88.92
9129;BME280;4599;50.906;6.786;2023-03-12T08:45:01;15151.28;;;-142.83;89.57
9129;BME280;4599;50.906;6.786;2023-03-12T08:49:03;15081.78;;;-142.83;90.06
9129;BME280;4599;50.906;6.786;2023-03-12T08:53:05;15085.84;;;-142.83;90.74
9129;BME280;4599;50.906;6.786;2023-03-12T08:57:08;15094.03;;;-142.83;91.51
9129;BME280;4599;50.906;6.786;2023-03-12T09:01:11;15083.81;;;-142.83;91.60
9129;BME280;4599;50.906;6.786;2023-03-12T09:05:13;15087.91;;;-142.83;91.98
9129;BME280;4599;50.906;6.786;2023-03-12T09:09:15;15028.63;;;-142.83;92.65
9129;BME280;4599;50.906;6.786;2023-03-12T09:13:18;15016.34;;;-142.83;93.53
9129;BME280;4599;50.906;6.786;2023-03-12T09:17:19;14991.81;;;-142.83;94.80
9129;BME280;4599;50.906;6.786;2023-03-12T09:21:21;14946.84;;;-142.83;95.54
9129;BME280;4599;50.906;6.786;2023-03-12T09:25:22;14932.53;;;-142.83;96.32
9129;BME280;4599;50.906;6.786;2023-03-12T09:29:25;14918.25;;;-142.83;96.48
9129;BME280;4599;50.906;6.786;2023-03-12T09:33:28;14816.03;;;-142.83;96.93
9129;BME280;4599;50.906;6.786;2023-03-12T09:37:30;14801.72;;;-142.83;96.93
9129;BME280;4599;50.906;6.786;2023-03-12T09:41:34;14826.25;;;-142.83;97.04
9129;BME280;4599;50.906;6.786;2023-03-12T09:45:42;14820.13;;;-142.83;97.03
9129;BME280;4599;50.906;6.786;2023-03-12T09:49:48;14779.25;;;-142.83;96.99
9129;BME280;4599;50.906;6.786;2023-03-12T09:53:53;14803.78;;;-142.83;97.42
9129;BME280;4599;50.906;6.786;2023-03-12T09:57:56;14773.09;;;-142.83;97.63
9129;BME280;4599;50.906;6.786;2023-03-12T10:02:03;14726.09;;;-142.83;98.01
9129;BME280;4599;50.906;6.786;2023-03-12T10:06:10;14570.75;;;-142.83;99.09
9129;BME280;4599;50.906;6.786;2023-03-12T10:10:32;14456.28;;;-142.83;98.80
9129;BME280;4599;50.906;6.786;2023-03-12T10:14:43;14347.97;;;-142.83;99.72
9129;BME280;4599;50.906;6.786;2023-03-12T10:19:06;14117.03;;;-142.83;99.61
9129;BME280;4599;50.906;6.786;2023-03-12T10:23:23;14006.66;;;-142.83;100.00
9129;BME280;4599;50.906;6.786;2023-03-12T10:27:32;13937.19;;;-142.83;100.00
9129;BME280;4599;50.906;6.786;2023-03-12T10:31:39;13892.22;;;-142.83;100.00
9129;BME280;4599;50.906;6.786;2023-03-12T10:35:45;13800.25;;;-142.83;100.00
9129;BME280;4599;50.906;6.786;2023-03-12T10:39:48;13755.31;;;-142.83;100.00
9129;BME280;4599;50.906;6.786;2023-03-12T10:43:50;13728.72;;;-142.83;100.00
9129;BME280;4599;50.906;6.786;2023-03-12T10:47:54;13708.28;;;-142.83;100.00
9129;BME280;4599;50.906;6.786;2023-03-12T10:52:02;13675.59;;;-142.83;100.00
9129;BME280;4599;50.906;6.786;2023-03-12T10:56:06;13677.66;;;-142.83;100.00
9129;BME280;4599;50.906;6.786;2023-03-12T11:00:15;13608.16;;;-142.83;100.00
9129;BME280;4599;50.906;6.786;2023-03-12T11:04:22;13626.56;;;-142.83;100.00
9129;BME280;4599;50.906;6.786;2023-03-12T11:08:27;13614.31;;;-142.83;100.00
9129;BME280;4599;50.906;6.786;2023-03-12T11:12:30;13642.91;;;-142.83;100.00
9129;BME280;4599;50.906;6.786;2023-03-12T11:16:31;13716.47;;;-142.83;99.98
9129;BME280;4599;50.906;6.786;2023-03-12T11:20:33;13700.13;;;-142.83;100.00
9129;BME280;4599;50.906;6.786;2023-03-12T11:24:54;13724.66;;;-142.83;99.42
9129;BME280;4599;50.906;6.786;2023-03-12T11:29:00;13722.59;;;-142.83;99.31
9129;BME280;4599;50.906;6.786;2023-03-12T11:33:03;13728.72;;;-142.83;99.22
9129;BME280;4599;50.906;6.786;2023-03-12T11:37:10;13783.91;;;-142.83;99.15
9129;BME280;4599;50.906;6.786;2023-03-12T11:41:24;13798.22;;;-142.83;99.26
9129;BME280;4599;50.906;6.786;2023-03-12T11:45:39;13843.16;;;-142.83;98.65
9129;BME280;4599;50.906;6.786;2023-03-12T11:49:53;13818.66;;;-142.83;99.25
9129;BME280;4599;50.906;6.786;2023-03-12T11:54:12;13820.69;;;-142.83;98.73
9129;BME280;4599;50.906;6.786;2023-03-12T11:58:50;13851.34;;;-142.83;98.41
9129;BME280;4599;50.906;6.786;2023-03-12T12:03:34;13853.38;;;-142.83;99.11
9129;BME280;4599;50.906;6.786;2023-03-12T12:07:50;13933.09;;;-142.83;98.42
9129;BME280;4599;50.906;6.786;2023-03-12T12:12:07;14161.97;;;-142.83;96.62
9129;BME280;4599;50.906;6.786;2023-03-12T12:16:21;14382.72;;;-142.83;93.01
9129;BME280;4599;50.906;6.786;2023-03-12T12:20:34;14489.00;;;-142.83;91.83
9129;BME280;4599;50.906;6.786;2023-03-12T12:24:50;14542.13;;;-142.83;90.50
9129;BME280;4599;50.906;6.786;2023-03-12T12:29:04;14627.97;;;-142.83;87.83
9129;BME280;4599;50.906;6.786;2023-03-12T12:33:25;14619.81;;;-142.83;88.18
9129;BME280;4599;50.906;6.786;2023-03-12T12:37:45;14670.91;;;-142.83;87.65
9129;BME280;4599;50.906;6.786;2023-03-12T12:41:50;14687.25;;;-142.83;85.37
9129;BME280;4599;50.906;6.786;2023-03-12T12:45:56;14656.59;;;-142.83;86.61
9129;BME280;4599;50.906;6.786;2023-03-12T12:50:02;14685.22;;;-142.83;87.25
9129;BME280;4599;50.906;6.786;2023-03-12T12:54:08;14750.63;;;-142.83;85.70
9129;BME280;4599;50.906;6.786;2023-03-12T12:58:19;14717.91;;;-142.83;84.13
9129;BME280;4599;50.906;6.786;2023-03-12T13:02:24;14803.78;;;-142.83;80.60
9129;BME280;4599;50.906;6.786;2023-03-12T13:06:53;14822.16;;;-142.83;80.29
9129;BME280;4599;50.906;6.786;2023-03-12T13:10:55;14861.00;;;-142.83;79.85
9129;BME280;4599;50.906;6.786;2023-03-12T13:15:34;14869.19;;;-142.83;78.63
9129;BME280;4599;50.906;6.786;2023-03-12T13:19:39;14875.31;;;-142.83;79.03
9129;BME280;4599;50.906;6.786;2023-03-12T13:23:52;14879.41;;;-142.83;77.81
9129;BME280;4599;50.906;6.786;2023-03-12T13:27:59;14881.44;;;-142.83;78.26
9129;BME280;4599;50.906;6.786;2023-03-12T13:32:02;14885.53;;;-142.83;78.44
9129;BME280;4599;50.906;6.786;2023-03-12T13:36:09;14910.06;;;-142.83;77.77
9129;BME280;4599;50.906;6.786;2023-03-12T13:40:35;14901.88;;;-142.83;76.27
9129;BME280;4599;50.906;6.786;2023-03-12T13:44:38;14948.91;;;-142.83;75.80
9129;BME280;4599;50.906;6.786;2023-03-12T13:48:43;14963.22;;;-142.83;74.94
9129;BME280;4599;50.906;6.786;2023-03-12T13:52:47;14946.84;;;-142.83;75.24
9129;BME280;4599;50.906;6.786;2023-03-12T13:56:57;14942.75;;;-142.83;74.91
9129;BME280;4599;50.906;6.786;2023-03-12T14:01:00;14981.59;;;-142.83;74.95
9129;BME280;4599;50.906;6.786;2023-03-12T14:05:05;14969.34;;;-142.83;77.34
9129;BME280;4599;50.906;6.786;2023-03-12T14:09:14;15006.13;;;-142.83;72.87
9129;BME280;4599;50.906;6.786;2023-03-12T14:13:38;15051.09;;;-142.83;70.34
9129;BME280;4599;50.906;6.786;2023-03-12T14:17:56;15026.56;;;-142.83;72.14
9129;BME280;4599;50.906;6.786;2023-03-12T14:22:00;15002.03;;;-142.83;73.48
9129;BME280;4599;50.906;6.786;2023-03-12T14:26:04;15044.97;;;-142.83;72.75
9129;BME280;4599;50.906;6.786;2023-03-12T14:30:10;15020.44;;;-142.83;73.01
9129;BME280;4599;50.906;6.786;2023-03-12T14:34:16;15073.59;;;-142.83;69.81
9129;BME280;4599;50.906;6.786;2023-03-12T14:38:23;15053.16;;;-142.83;70.25
9129;BME280;4599;50.906;6.786;2023-03-12T14:42:28;15100.16;;;-142.83;70.10
9129;BME280;4599;50.906;6.786;2023-03-12T14:46:31;15055.19;;;-142.83;69.28
9129;BME280;4599;50.906;6.786;2023-03-12T14:50:36;15042.94;;;-142.83;71.72
9129;BME280;4599;50.906;6.786;2023-03-12T14:54:38;15069.50;;;-142.83;70.08
9129;BME280;4599;50.906;6.786;2023-03-12T14:58:44;15044.97;;;-142.83;71.67
9129;BME280;4599;50.906;6.786;2023-03-12T15:02:48;15069.50;;;-142.83;70.83
9129;BME280;4599;50.906;6.786;2023-03-12T15:06:53;15049.06;;;-142.83;71.03
9129;BME280;4599;50.906;6.786;2023-03-12T15:10:57;15055.19;;;-142.83;71.91
9129;BME280;4599;50.906;6.786;2023-03-12T15:15:02;15008.19;;;-142.83;72.31
9129;BME280;4599;50.906;6.786;2023-03-12T15:19:11;15032.72;;;-142.83;71.34
9129;BME280;4599;50.906;6.786;2023-03-12T15:23:13;14997.97;;;-142.83;72.83
9129;BME280;4599;50.906;6.786;2023-03-12T15:27:33;14981.59;;;-142.83;73.91
9129;BME280;4599;50.906;6.786;2023-03-12T15:31:42;15040.88;;;-142.83;71.96
9129;BME280;4599;50.906;6.786;2023-03-12T15:35:59;15049.06;;;-142.83;70.17
9129;BME280;4599;50.906;6.786;2023-03-12T15:40:05;15104.25;;;-142.83;68.71
9129;BME280;4599;50.906;6.786;2023-03-12T15:44:16;15167.63;;;-142.83;65.44
9129;BME280;4599;50.906;6.786;2023-03-12T15:48:24;15153.31;;;-142.83;65.56
9129;BME280;4599;50.906;6.786;2023-03-12T15:52:30;15163.53;;;-142.83;64.92
9129;BME280;4599;50.906;6.786;2023-03-12T15:56:34;15151.28;;;-142.83;66.72
9129;BME280;4599;50.906;6.786;2023-03-12T16:00:41;15151.28;;;-142.83;65.75
9129;BME280;4599;50.906;6.786;2023-03-12T16:04:43;15169.69;;;-142.83;64.85
9129;BME280;4599;50.906;6.786;2023-03-12T16:08:47;15212.59;;;-142.83;63.46
9129;BME280;4599;50.906;6.786;2023-03-12T16:12:59;15218.75;;;-142.83;63.73
9129;BME280;4599;50.906;6.786;2023-03-12T16:17:01;15216.69;;;-142.83;62.80
9129;BME280;4599;50.906;6.786;2023-03-12T16:21:03;15247.34;;;-142.83;61.99
9129;BME280;4599;50.906;6.786;2023-03-12T16:25:07;15245.31;;;-142.83;63.19
9129;BME280;4599;50.906;6.786;2023-03-12T16:29:14;15231.00;;;-142.83;63.51
9129;BME280;4599;50.906;6.786;2023-03-12T16:33:17;15216.69;;;-142.83;64.32
9129;BME280;4599;50.906;6.786;2023-03-12T16:37:19;15208.50;;;-142.83;65.33
9129;BME280;4599;50.906;6.786;2023-03-12T16:41:22;15224.88;;;-142.83;64.43
9129;BME280;4599;50.906;6.786;2023-03-12T16:45:23;15228.97;;;-142.83;65.63
9129;BME280;4599;50.906;6.786;2023-03-12T16:49:25;15163.53;;;-142.83;68.25
9129;BME280;4599;50.906;6.786;2023-03-12T16:53:26;15132.88;;;-142.83;68.24
9129;BME280;4599;50.906;6.786;2023-03-12T16:57:32;15134.91;;;-142.83;68.65
9129;BME280;4599;50.906;6.786;2023-03-12T17:01:34;15118.56;;;-142.83;69.49
9129;BME280;4599;50.906;6.786;2023-03-12T17:05:36;15085.84;;;-142.83;71.06
9129;BME280;4599;50.906;6.786;2023-03-12T17:09:37;15087.91;;;-142.83;72.58
9129;BME280;4599;50.906;6.786;2023-03-12T17:13:41;15085.84;;;-142.83;71.16
9129;BME280;4599;50.906;6.786;2023-03-12T17:17:42;15089.94;;;-142.83;72.61
9129;BME280;4599;50.906;6.786;2023-03-12T17:21:44;15047.03;;;-142.83;73.28
9129;BME280;4599;50.906;6.786;2023-03-12T17:25:46;15055.19;;;-142.83;72.95
9129;BME280;4599;50.906;6.786;2023-03-12T17:29:49;15032.72;;;-142.83;73.16
9129;BME280;4599;50.906;6.786;2023-03-12T17:33:50;14975.47;;;-142.83;75.90
9129;BME280;4599;50.906;6.786;2023-03-12T17:37:52;15022.50;;;-142.83;76.64
9129;BME280;4599;50.906;6.786;2023-03-12T17:41:54;15026.56;;;-142.83;75.89
9129;BME280;4599;50.906;6.786;2023-03-12T17:45:57;14985.69;;;-142.83;77.11
9129;BME280;4599;50.906;6.786;2023-03-12T17:50:05;15034.75;;;-142.83;75.82
9129;BME280;4599;50.906;6.786;2023-03-12T17:54:07;15022.50;;;-142.83;75.82
9129;BME280;4599;50.906;6.786;2023-03-12T17:58:08;15024.53;;;-142.83;76.22
9129;BME280;4599;50.906;6.786;2023-03-12T18:02:12;15034.75;;;-142.83;74.57
9129;BME280;4599;50.906;6.786;2023-03-12T18:06:13;14991.81;;;-142.83;75.63
9129;BME280;4599;50.906;6.786;2023-03-12T18:10:15;15032.72;;;-142.83;75.65
9129;BME280;4599;50.906;6.786;2023-03-12T18:14:17;15049.06;;;-142.83;75.16
9129;BME280;4599;50.906;6.786;2023-03-12T18:18:21;15014.31;;;-142.83;76.00
9129;BME280;4599;50.906;6.786;2023-03-12T18:22:22;15000.00;;;-142.83;76.77
9129;BME280;4599;50.906;6.786;2023-03-12T18:26:24;15000.00;;;-142.83;75.63
9129;BME280;4599;50.906;6.786;2023-03-12T18:30:26;14983.66;;;-142.83;76.70
9129;BME280;4599;50.906;6.786;2023-03-12T18:34:28;14971.38;;;-142.83;78.56
9129;BME280;4599;50.906;6.786;2023-03-12T18:38:32;15008.19;;;-142.83;77.55
9129;BME280;4599;50.906;6.786;2023-03-12T18:42:33;15032.72;;;-142.83;76.50
9129;BME280;4599;50.906;6.786;2023-03-12T18:46:35;15028.63;;;-142.83;77.98
9129;BME280;4599;50.906;6.786;2023-03-12T18:50:38;14973.44;;;-142.83;79.16
9129;BME280;4599;50.906;6.786;2023-03-12T18:54:39;15004.09;;;-142.83;78.52
9129;BME280;4599;50.906;6.786;2023-03-12T18:58:41;14957.06;;;-142.83;78.53
9129;BME280;4599;50.906;6.786;2023-03-12T19:02:43;14993.88;;;-142.83;76.93
9129;BME280;4599;50.906;6.786;2023-03-12T19:06:49;14995.91;;;-142.83;78.00
9129;BME280;4599;50.906;6.786;2023-03-12T19:10:52;14965.25;;;-142.83;79.67
9129;BME280;4599;50.906;6.786;2023-03-12T19:14:53;14944.81;;;-142.83;80.70
9129;BME280;4599;50.906;6.786;2023-03-12T19:19:03;15018.41;;;-142.83;77.53
9129;BME280;4599;50.906;6.786;2023-03-12T19:23:06;14979.56;;;-142.83;77.86
9129;BME280;4599;50.906;6.786;2023-03-12T19:27:08;15010.22;;;-142.83;77.15
9129;BME280;4599;50.906;6.786;2023-03-12T19:31:10;15016.34;;;-142.83;76.38
9129;BME280;4599;50.906;6.786;2023-03-12T19:35:13;14987.75;;;-142.83;76.23
9129;BME280;4599;50.906;6.786;2023-03-12T19:39:16;15049.06;;;-142.83;75.70
9129;BME280;4599;50.906;6.786;2023-03-12T19:43:22;15032.72;;;-142.83;74.47
9129;BME280;4599;50.906;6.786;2023-03-12T19:47:24;15049.06;;;-142.83;74.18
9129;BME280;4599;50.906;6.786;2023-03-12T19:51:28;15026.56;;;-142.83;75.13
9129;BME280;4599;50.906;6.786;2023-03-12T19:55:32;15022.50;;;-142.83;75.25
9129;BME280;4599;50.906;6.786;2023-03-12T19:59:34;15044.97;;;-142.83;75.38
9129;BME280;4599;50.906;6.786;2023-03-12T20:03:38;15042.94;;;-142.83;73.79
9129;BME280;4599;50.906;6.786;2023-03-12T20:07:43;15044.97;;;-142.83;74.61
9129;BME280;4599;50.906;6.786;2023-03-12T20:11:48;15038.84;;;-142.83;74.05
9129;BME280;4599;50.906;6.786;2023-03-12T20:15:49;15059.28;;;-142.83;75.36
9129;BME280;4599;50.906;6.786;2023-03-12T20:19:50;15075.63;;;-142.83;74.46
9129;BME280;4599;50.906;6.786;2023-03-12T20:23:54;15018.41;;;-142.83;74.70
9129;BME280;4599;50.906;6.786;2023-03-12T20:27:57;15014.31;;;-142.83;76.43
9129;BME280;4599;50.906;6.786;2023-03-12T20:31:58;15044.97;;;-142.83;74.33
9129;BME280;4599;50.906;6.786;2023-03-12T20:36:03;15053.16;;;-142.83;73.75
9129;BME280;4599;50.906;6.786;2023-03-12T20:40:06;15038.84;;;-142.83;74.50
9129;BME280;4599;50.906;6.786;2023-03-12T20:44:10;15063.38;;;-142.83;74.15
9129;BME280;4599;50.906;6.786;2023-03-12T20:48:12;15061.31;;;-142.83;73.61
9129;BME280;4599;50.906;6.786;2023-03-12T20:52:16;15067.47;;;-142.83;73.53
9129;BME280;4599;50.906;6.786;2023-03-12T20:56:18;15059.28;;;-142.83;75.01
9129;BME280;4599;50.906;6.786;2023-03-12T21:00:23;15049.06;;;-142.83;73.78
9129;BME280;4599;50.906;6.786;2023-03-12T21:04:25;15057.25;;;-142.83;74.54
9129;BME280;4599;50.906;6.786;2023-03-12T21:08:27;15069.50;;;-142.83;74.59
9129;BME280;4599;50.906;6.786;2023-03-12T21:12:29;15026.56;;;-142.83;74.47
9129;BME280;4599;50.906;6.786;2023-03-12T21:16:32;15036.81;;;-142.83;74.47
9129;BME280;4599;50.906;6.786;2023-03-12T21:20:35;15053.16;;;-142.83;75.69
9129;BME280;4599;50.906;6.786;2023-03-12T21:24:37;15024.53;;;-142.83;76.13
9129;BME280;4599;50.906;6.786;2023-03-12T21:28:38;15014.31;;;-142.83;76.36
9129;BME280;4599;50.906;6.786;2023-03-12T21:32:41;15022.50;;;-142.83;77.13
9129;BME280;4599;50.906;6.786;2023-03-12T21:36:43;15004.09;;;-142.83;79.67